Time;durP1;ratioP1;P1;durP2;ratioP2;P2;SDS_P1;SDS_P2;PMS_P1;PMS_P2;Temp;Humidity;BMP_temperature;BMP_pressure;BME280_temperature;BME280_humidity;BME280_pressure;Samples;Min_cycle;Max_cycle;Signal;HPM_P1;HPM_P2
2021/05/21 00:01:43;;;;;;;1.27;1.20;;;;;;;12.82;59.51;98705.97;5108820;28;43393;-76
2021/05/21 00:04:11;;;;;;;3.10;1.90;;;;;;;12.82;59.63;98720.13;5107738;28;41096;-75
2021/05/21 00:06:39;;;;;;;1.40;1.30;;;;;;;12.82;59.86;98713.94;5091009;28;38723;-75
2021/05/21 00:09:12;;;;;;;1.57;1.47;;;;;;;12.82;59.76;98711.28;5092422;28;41534;-75
2021/05/21 00:11:39;;;;;;;2.23;1.77;;;;;;;12.82;59.65;98711.28;5107796;28;42668;-75
2021/05/21 00:14:06;;;;;;;1.60;1.50;;;;;;;12.76;59.37;98698.44;5107631;28;42888;-76
2021/05/21 00:16:33;;;;;;;2.07;1.40;;;;;;;12.85;59.36;98700.44;5107650;28;39840;-76
2021/05/21 00:19:00;;;;;;;1.93;1.70;;;;;;;12.78;59.64;98675.25;5107415;28;40712;-75
2021/05/21 00:21:28;;;;;;;2.07;1.90;;;;;;;12.75;60.00;98675.50;5090750;28;41717;-76
2021/05/21 00:23:56;;;;;;;1.90;1.80;;;;;;;12.82;60.06;98698.00;5091008;28;41966;-76
2021/05/21 00:26:23;;;;;;;1.63;1.53;;;;;;;12.78;59.76;98688.56;5108408;28;40304;-75
2021/05/21 00:28:50;;;;;;;2.13;1.70;;;;;;;12.81;59.71;98685.69;5107944;28;42394;-76
2021/05/21 00:31:17;;;;;;;1.90;1.70;;;;;;;12.78;59.81;98686.75;5108420;28;42446;-75
2021/05/21 00:33:44;;;;;;;2.03;1.70;;;;;;;12.70;59.66;98677.66;5142535;27;42215;-75
2021/05/21 00:36:12;;;;;;;1.80;1.70;;;;;;;12.78;60.63;98683.25;5091652;28;38868;-75
2021/05/21 00:38:40;;;;;;;2.23;1.53;;;;;;;12.76;60.24;98666.56;5108615;28;40636;-76
2021/05/21 00:41:07;;;;;;;1.97;1.33;;;;;;;12.78;60.15;98672.59;5108718;27;42282;-75
2021/05/21 00:43:34;;;;;;;1.70;1.60;;;;;;;12.72;59.96;98651.81;5128078;27;42141;-75
2021/05/21 00:46:02;;;;;;;2.27;1.77;;;;;;;12.76;60.15;98661.25;5087092;28;39827;-76
2021/05/21 00:48:29;;;;;;;2.83;1.90;;;;;;;12.70;60.01;98654.59;5089002;28;41730;-77
2021/05/21 00:50:56;;;;;;;1.83;1.73;;;;;;;12.75;60.48;98660.41;5087664;28;42725;-76
2021/05/21 00:53:27;;;;;;;1.70;1.60;;;;;;;12.75;60.46;98654.22;5087820;28;42140;-77
2021/05/21 00:55:57;;;;;;;2.20;2.10;;;;;;;12.72;59.98;98660.66;5083650;28;39364;-75
2021/05/21 00:58:25;;;;;;;1.87;1.77;;;;;;;12.46;59.95;98628.03;5107709;28;41089;-75
2021/05/21 01:00:52;;;;;;;1.70;1.60;;;;;;;12.67;60.08;98656.63;5090624;28;41919;-76
2021/05/21 01:03:20;;;;;;;2.17;1.70;;;;;;;12.65;60.24;98653.22;5107234;28;42656;-76
2021/05/21 01:05:47;;;;;;;1.40;1.30;;;;;;;12.63;59.88;98645.38;5109131;27;39911;-75
2021/05/21 01:08:16;;;;;;;1.30;1.20;;;;;;;12.58;59.89;98629.78;5140912;27;41415;-76
2021/05/21 01:10:45;;;;;;;1.47;1.37;;;;;;;12.57;60.24;98635.22;5108523;27;43397;-75
2021/05/21 01:13:14;;;;;;;1.93;1.70;;;;;;;12.50;60.65;98623.31;5109193;27;42170;-75
2021/05/21 01:15:43;;;;;;;1.43;1.33;;;;;;;12.37;60.40;98623.38;5107304;28;39891;-75
2021/05/21 01:18:11;;;;;;;1.40;1.30;;;;;;;12.37;60.54;98628.69;5109139;28;42345;-75
2021/05/21 01:20:40;;;;;;;1.50;1.40;;;;;;;12.30;60.55;98627.47;5112287;27;42445;-75
2021/05/21 01:23:07;;;;;;;2.10;1.90;;;;;;;12.22;60.97;98614.75;5094669;28;41122;-75
2021/05/21 01:25:36;;;;;;;1.90;1.40;;;;;;;12.16;60.99;98611.69;5110006;28;39552;-76
2021/05/21 01:28:05;;;;;;;1.60;1.50;;;;;;;12.11;60.99;98612.03;5112305;27;41749;-75
2021/05/21 01:30:33;;;;;;;1.63;1.53;;;;;;;12.04;61.57;98607.25;5110581;28;41145;-76
2021/05/21 01:33:06;;;;;;;1.50;1.40;;;;;;;12.01;61.40;98604.81;5093511;28;41306;-75
2021/05/21 01:35:34;;;;;;;1.60;1.50;;;;;;;11.98;61.22;98599.75;5110964;28;40555;-75
2021/05/21 01:38:02;;;;;;;1.60;1.50;;;;;;;11.94;61.42;98593.81;5111688;27;41717;-75
2021/05/21 01:40:30;;;;;;;1.80;1.70;;;;;;;11.86;61.13;98594.38;5112137;27;43173;-75
2021/05/21 01:42:57;;;;;;;1.27;1.17;;;;;;;11.88;61.44;98599.56;5092998;28;42349;-75
2021/05/21 01:45:25;;;;;;;1.60;1.50;;;;;;;11.56;61.68;98543.47;5093757;28;39303;-76
2021/05/21 01:47:52;;;;;;;2.53;1.80;;;;;;;11.86;61.84;98581.13;5093853;28;41050;-76
2021/05/21 01:50:19;;;;;;;1.80;1.53;;;;;;;11.82;61.58;98568.16;5093903;28;41610;-75
2021/05/21 01:52:46;;;;;;;1.67;1.57;;;;;;;11.80;61.76;98560.31;5090210;28;41008;-75
2021/05/21 01:55:15;;;;;;;1.90;1.80;;;;;;;11.91;61.72;98571.97;5090720;28;40627;-75
2021/05/21 01:57:42;;;;;;;1.63;1.53;;;;;;;11.90;61.69;98565.81;5090208;28;42202;-75
2021/05/21 02:00:12;;;;;;;2.50;1.50;;;;;;;11.89;61.92;98561.44;5108568;28;42725;-75
2021/05/21 02:02:43;;;;;;;1.40;1.30;;;;;;;11.86;62.24;98559.91;5110267;28;42315;-76
2021/05/21 02:05:11;;;;;;;1.67;1.57;;;;;;;11.82;62.24;98561.06;5109812;28;40664;-76
2021/05/21 02:07:38;;;;;;;1.40;1.30;;;;;;;11.74;61.78;98539.53;5111387;27;42490;-76
2021/05/21 02:10:07;;;;;;;1.33;1.23;;;;;;;11.57;61.75;98525.75;5109990;28;43373;-77
2021/05/21 02:12:36;;;;;;;1.50;1.40;;;;;;;11.71;62.24;98544.19;5111287;27;42178;-75
2021/05/21 02:15:06;;;;;;;1.70;1.50;;;;;;;11.76;62.05;98542.91;5110517;27;39429;-76
2021/05/21 02:17:34;;;;;;;2.00;1.70;;;;;;;11.70;62.49;98529.22;5108904;28;42410;-76
2021/05/21 02:20:02;;;;;;;1.37;1.27;;;;;;;11.82;62.30;98546.94;5110478;28;42675;-76
2021/05/21 02:22:31;;;;;;;2.57;1.50;;;;;;;11.83;62.36;98538.03;5111024;27;41927;-77
2021/05/21 02:25:00;;;;;;;1.70;1.60;;;;;;;11.83;62.26;98532.72;5110082;28;39869;-75
2021/05/21 02:27:28;;;;;;;1.77;1.67;;;;;;;11.88;62.68;98525.25;5109470;27;42147;-76
2021/05/21 02:29:57;;;;;;;2.10;1.90;;;;;;;11.80;62.49;98515.22;5110671;27;43133;-76
2021/05/21 02:32:24;;;;;;;3.17;1.77;;;;;;;11.88;62.34;98525.25;5093391;28;41436;-76
2021/05/21 02:34:51;;;;;;;1.43;1.20;;;;;;;11.86;62.17;98509.47;5110235;28;39345;-77
2021/05/21 02:37:19;;;;;;;2.30;1.60;;;;;;;11.95;62.81;98509.75;5111448;27;42227;-75
2021/05/21 02:39:46;;;;;;;2.03;1.87;;;;;;;11.96;62.23;98519.41;5111288;27;44022;-76
2021/05/21 02:42:13;;;;;;;1.63;1.53;;;;;;;11.90;62.13;98495.97;5109670;28;41789;-76
2021/05/21 02:44:40;;;;;;;1.43;1.30;;;;;;;11.99;61.97;98513.88;5110093;28;39596;-76
2021/05/21 02:47:08;;;;;;;2.23;1.70;;;;;;;11.96;61.76;98500.84;5113279;27;41392;-76
2021/05/21 02:49:35;;;;;;;2.00;1.70;;;;;;;12.02;61.77;98510.97;5129042;27;42746;-75
2021/05/21 02:52:03;;;;;;;1.60;1.50;;;;;;;12.05;61.92;98505.44;5110738;27;42887;-76
2021/05/21 02:54:31;;;;;;;1.60;1.40;;;;;;;12.06;61.39;98491.22;5110980;27;39919;-75
2021/05/21 02:56:58;;;;;;;1.90;1.67;;;;;;;12.18;61.23;98507.09;5108926;28;42545;-76
2021/05/21 02:59:25;;;;;;;1.50;1.40;;;;;;;12.21;61.39;98512.19;5109369;28;43607;-76
2021/05/21 03:01:52;;;;;;;1.60;1.50;;;;;;;12.28;61.09;98493.97;5110615;27;42728;-76
2021/05/21 03:04:20;;;;;;;2.50;1.77;;;;;;;12.31;60.97;98485.78;5092312;28;39375;-76
2021/05/21 03:06:47;;;;;;;1.50;1.40;;;;;;;12.37;61.15;98492.41;5092165;28;40827;-76
2021/05/21 03:09:16;;;;;;;1.40;1.30;;;;;;;12.36;60.79;98483.63;5092306;28;42623;-75
2021/05/21 03:11:43;;;;;;;2.20;1.40;;;;;;;12.42;61.05;98483.16;5092556;28;41177;-75
2021/05/21 03:14:10;;;;;;;1.47;1.37;;;;;;;12.42;61.05;98479.66;5108823;28;40462;-76
2021/05/21 03:16:37;;;;;;;1.47;1.37;;;;;;;12.37;61.14;98471.16;5110801;27;42411;-76
2021/05/21 03:19:04;;;;;;;1.30;1.20;;;;;;;12.34;61.20;98466.97;5108804;28;42639;-76
2021/05/21 03:21:32;;;;;;;2.13;1.40;;;;;;;12.24;61.42;98458.81;5109863;27;42611;-76
2021/05/21 03:23:59;;;;;;;2.80;1.37;;;;;;;12.18;61.43;98445.19;5110512;27;40372;-77
2021/05/21 03:26:26;;;;;;;1.60;1.30;;;;;;;12.10;61.63;98444.91;5110825;27;42494;-76
2021/05/21 03:28:53;;;;;;;1.80;1.70;;;;;;;12.06;62.13;98438.13;5108662;28;43249;-76
2021/05/21 03:31:20;;;;;;;1.43;1.20;;;;;;;12.02;62.01;98436.66;5109085;28;42134;-76
2021/05/21 03:33:48;;;;;;;2.00;1.50;;;;;;;11.95;62.48;98427.50;5109468;27;40604;-76
2021/05/21 03:36:15;;;;;;;1.60;1.40;;;;;;;11.90;62.75;98427.81;5108715;28;41630;-76
2021/05/21 03:38:43;;;;;;;1.30;1.20;;;;;;;11.80;62.45;98422.38;5088726;28;42875;-75
2021/05/21 03:41:11;;;;;;;1.53;1.37;;;;;;;11.85;62.71;98430.84;5070377;28;41180;-75
2021/05/21 03:43:38;;;;;;;1.37;1.27;;;;;;;11.88;62.68;98430.59;5089182;28;39028;-76
2021/05/21 03:46:05;;;;;;;2.07;1.50;;;;;;;11.87;62.48;98420.94;5130508;27;42330;-75
2021/05/21 03:48:33;;;;;;;2.37;1.63;;;;;;;11.86;62.78;98416.63;5092543;28;42096;-76
2021/05/21 03:51:00;;;;;;;1.60;1.27;;;;;;;11.89;62.99;98423.47;5108222;28;42158;-76
2021/05/21 03:53:27;;;;;;;1.80;1.60;;;;;;;11.88;62.94;98419.97;5143879;27;40635;-76
2021/05/21 03:55:55;;;;;;;1.37;1.27;;;;;;;11.91;62.96;98424.22;5108591;27;41597;-76
2021/05/21 03:58:22;;;;;;;1.97;1.40;;;;;;;11.92;62.44;98403.81;5092195;28;42768;-75
2021/05/21 04:00:49;;;;;;;1.53;1.17;;;;;;;12.09;62.17;98416.69;5108059;28;41916;-76
2021/05/21 04:03:17;;;;;;;1.60;1.50;;;;;;;12.14;62.71;98409.19;5108881;28;39883;-76
2021/05/21 04:05:44;;;;;;;1.40;1.30;;;;;;;12.26;61.90;98413.56;5108384;28;41660;-76
2021/05/21 04:08:12;;;;;;;1.57;1.47;;;;;;;12.37;61.75;98405.63;5109759;27;42957;-76
2021/05/21 04:10:39;;;;;;;1.50;1.40;;;;;;;12.44;61.45;98406.88;5091130;28;41243;-76
2021/05/21 04:13:07;;;;;;;1.43;1.30;;;;;;;12.57;62.08;98401.44;5109250;27;39904;-76
2021/05/21 04:15:34;;;;;;;1.33;1.23;;;;;;;12.57;61.66;98402.31;5108793;27;41762;-76
2021/05/21 04:18:01;;;;;;;2.60;1.40;;;;;;;12.72;61.07;98404.72;5107975;28;43394;-76
2021/05/21 04:20:28;;;;;;;1.30;1.20;;;;;;;12.78;61.36;98414.84;5107070;28;42074;-75
2021/05/21 04:22:56;;;;;;;1.07;0.90;;;;;;;12.87;60.95;98411.47;5141684;27;40264;-76
2021/05/21 04:25:24;;;;;;;1.30;1.20;;;;;;;12.93;60.98;98411.84;5109389;27;41862;-76
2021/05/21 04:27:51;;;;;;;2.67;1.33;;;;;;;12.89;60.45;98394.44;5090323;28;41898;-77
2021/05/21 04:30:21;;;;;;;1.63;1.40;;;;;;;13.07;60.64;98405.44;5091602;28;42099;-76
2021/05/21 04:32:48;;;;;;;1.93;1.30;;;;;;;13.14;60.63;98406.66;5107863;28;39794;-76
2021/05/21 04:35:15;;;;;;;1.40;1.30;;;;;;;13.18;60.54;98399.28;5109265;27;41411;-76
2021/05/21 04:37:42;;;;;;;1.40;1.30;;;;;;;13.27;60.29;98412.69;5107957;27;43045;-76
2021/05/21 04:40:10;;;;;;;1.40;1.30;;;;;;;13.36;60.03;98400.44;5109593;27;42726;-76
2021/05/21 04:42:37;;;;;;;1.40;1.30;;;;;;;13.44;60.04;98397.19;5107873;28;40065;-76
2021/05/21 04:45:07;;;;;;;1.50;1.40;;;;;;;13.53;59.91;98407.06;5106429;28;40082;-76
2021/05/21 04:47:35;;;;;;;1.13;1.00;;;;;;;13.61;59.66;98400.13;5108163;28;43450;-76
2021/05/21 04:50:04;;;;;;;1.47;1.37;;;;;;;13.52;58.99;98379.63;5107078;28;42284;-76
2021/05/21 04:52:31;;;;;;;2.70;1.40;;;;;;;13.68;58.34;98389.84;5112054;27;40459;-76
2021/05/21 04:54:58;;;;;;;1.70;1.60;;;;;;;13.72;58.85;98395.78;5111571;28;40945;-76
2021/05/21 04:57:25;;;;;;;1.87;1.30;;;;;;;13.79;58.48;98394.28;5112342;27;42166;-76
2021/05/21 04:59:52;;;;;;;1.87;1.43;;;;;;;13.88;58.52;98401.50;5111047;28;42850;-76
2021/05/21 05:02:19;;;;;;;1.40;1.30;;;;;;;13.96;58.49;98389.25;5110958;28;40145;-76
2021/05/21 05:04:48;;;;;;;2.47;1.57;;;;;;;14.06;57.87;98388.47;5111501;28;42356;-76
2021/05/21 05:07:15;;;;;;;1.20;1.10;;;;;;;14.17;57.63;98385.75;5110730;28;43487;-76
2021/05/21 05:09:42;;;;;;;1.57;1.30;;;;;;;14.23;57.55;98374.56;5112519;27;42523;-75
2021/05/21 05:12:09;;;;;;;3.40;1.60;;;;;;;14.26;56.83;98384.97;5144386;27;39906;-76
2021/05/21 05:14:36;;;;;;;2.73;1.37;;;;;;;14.38;57.08;98378.59;5094235;28;41565;-77
2021/05/21 05:17:04;;;;;;;1.63;1.20;;;;;;;14.50;56.81;98377.56;5128168;27;42442;-74
2021/05/21 05:19:31;;;;;;;1.80;1.27;;;;;;;14.58;55.94;98375.09;5090691;28;41971;-76
2021/05/21 05:21:59;;;;;;;1.63;1.30;;;;;;;14.69;56.04;98369.69;5095755;28;40024;-77
2021/05/21 05:24:33;;;;;;;1.27;1.17;;;;;;;14.78;56.22;98372.50;5112430;27;41732;-75
2021/05/21 05:27:00;;;;;;;1.37;1.17;;;;;;;14.72;55.95;98336.56;5090171;28;42893;-77
2021/05/21 05:29:27;;;;;;;1.67;1.40;;;;;;;14.99;55.93;98363.47;5092601;28;42332;-79
2021/05/21 05:31:54;;;;;;;1.70;1.60;;;;;;;15.00;55.59;98340.31;5090410;28;40365;-78
2021/05/21 05:34:21;;;;;;;1.97;1.17;;;;;;;15.26;54.74;98360.19;5091502;28;40550;-76
2021/05/21 05:36:48;;;;;;;2.00;1.20;;;;;;;15.42;54.02;98355.16;5088752;28;42624;-77
2021/05/21 05:39:16;;;;;;;1.90;1.10;;;;;;;15.51;53.46;98353.47;5091064;28;42910;-78
2021/05/21 05:41:43;;;;;;;2.97;1.13;;;;;;;15.65;53.77;98352.25;5107716;28;40067;-77
2021/05/21 05:44:10;;;;;;;2.27;1.17;;;;;;;15.86;53.29;98352.09;5110698;28;41495;-77
2021/05/21 05:46:37;;;;;;;1.70;1.03;;;;;;;15.96;53.66;98348.44;5107101;27;43191;-74
2021/05/21 05:49:04;;;;;;;2.40;1.47;;;;;;;16.08;52.94;98349.13;5107675;28;42800;-75
2021/05/21 05:51:31;;;;;;;2.93;1.57;;;;;;;16.11;52.38;98340.84;5109524;28;39832;-73
2021/05/21 05:53:59;;;;;;;2.00;1.40;;;;;;;16.24;52.04;98354.75;5107458;27;40684;-75
2021/05/21 05:56:26;;;;;;;1.97;1.00;;;;;;;16.37;51.95;98333.91;5105338;28;42446;-75
2021/05/21 05:58:54;;;;;;;2.03;1.00;;;;;;;16.51;52.06;98333.44;5108805;28;42103;-77
2021/05/21 06:01:21;;;;;;;3.07;1.40;;;;;;;16.64;51.41;98341.16;5110043;27;39616;-77
2021/05/21 06:03:48;;;;;;;1.93;1.63;;;;;;;16.71;51.52;98339.56;5109594;28;40800;-77
2021/05/21 06:06:15;;;;;;;2.40;1.80;;;;;;;16.82;51.42;98333.19;5130572;27;42751;-74
2021/05/21 06:08:42;;;;;;;2.10;1.40;;;;;;;16.96;51.08;98337.19;5119875;27;43039;-76
2021/05/21 06:11:09;;;;;;;4.10;1.40;;;;;;;17.08;50.96;98342.22;5109121;28;39759;-75
2021/05/21 06:13:38;;;;;;;3.43;1.10;;;;;;;17.22;49.85;98338.19;5109375;28;40683;-76
2021/05/21 06:16:05;;;;;;;2.20;1.10;;;;;;;17.36;49.51;98332.31;5108070;28;43338;-75
2021/05/21 06:18:32;;;;;;;4.73;1.17;;;;;;;17.41;49.60;98319.34;5108335;28;42730;-73
2021/05/21 06:20:59;;;;;;;1.80;1.10;;;;;;;17.55;49.62;98318.81;5110888;27;41090;-74
2021/05/21 06:23:26;;;;;;;2.70;1.20;;;;;;;17.51;48.70;98322.78;5109592;28;40562;-74
2021/05/21 06:25:58;;;;;;;1.57;1.20;;;;;;;17.55;49.93;98313.47;5110655;27;42158;-74
2021/05/21 06:28:26;;;;;;;1.20;1.00;;;;;;;17.60;49.01;98311.16;5143467;27;42168;-74
2021/05/21 06:30:54;;;;;;;3.43;1.37;;;;;;;17.72;48.65;98292.19;5109105;28;39357;-74
2021/05/21 06:33:21;;;;;;;3.00;1.13;;;;;;;17.75;48.99;98287.38;5110088;27;42404;-74
2021/05/21 06:35:49;;;;;;;1.33;1.10;;;;;;;17.96;48.78;98295.06;5108986;28;41983;-74
2021/05/21 06:38:18;;;;;;;1.70;1.13;;;;;;;18.07;48.20;98297.50;5092606;28;41079;-75
2021/05/21 06:40:45;;;;;;;3.07;1.10;;;;;;;18.18;47.90;98302.59;5109654;28;39713;-74
2021/05/21 06:43:13;;;;;;;1.53;1.13;;;;;;;18.30;47.41;98301.34;5091879;28;40260;-74
2021/05/21 06:45:41;;;;;;;2.10;1.30;;;;;;;18.40;47.06;98295.03;5109229;28;43084;-75
2021/05/21 06:48:10;;;;;;;0.97;0.80;;;;;;;18.48;46.61;98289.72;5108439;28;42339;-76
2021/05/21 06:50:37;;;;;;;1.90;1.20;;;;;;;18.55;46.39;98291.59;5109828;28;39922;-75
2021/05/21 06:53:04;;;;;;;1.23;1.00;;;;;;;18.62;45.57;98300.72;5109906;27;42252;-79
2021/05/21 06:55:31;;;;;;;3.57;1.10;;;;;;;18.72;45.37;98280.97;5111279;27;42747;-75
2021/05/21 06:57:58;;;;;;;3.20;1.03;;;;;;;18.82;45.44;98287.91;5107699;27;42875;-74
2021/05/21 07:00:25;;;;;;;2.93;1.27;;;;;;;18.99;44.94;98295.03;5089273;28;39441;-77
2021/05/21 07:02:52;;;;;;;0.90;0.80;;;;;;;18.94;44.61;98305.38;5107142;27;41674;-76
2021/05/21 07:05:20;;;;;;;1.37;1.00;;;;;;;19.02;44.53;98308.13;5105520;28;42429;-76
2021/05/21 07:07:48;;;;;;;2.47;0.87;;;;;;;19.02;44.64;98288.50;5105126;28;41887;-77
2021/05/21 07:10:16;;;;;;;1.53;0.87;;;;;;;19.04;44.30;98285.66;5088141;28;38912;-76
2021/05/21 07:12:43;;;;;;;0.97;0.90;;;;;;;19.07;44.33;98280.78;5104667;28;41418;-75
2021/05/21 07:15:10;;;;;;;0.97;0.80;;;;;;;19.15;44.62;98294.25;5105344;28;41886;-75
2021/05/21 07:17:39;;;;;;;2.33;0.80;;;;;;;19.04;43.96;98297.19;5089919;28;42221;-77
2021/05/21 07:20:10;;;;;;;2.63;1.00;;;;;;;19.07;44.14;98296.03;5108440;28;38978;-75
2021/05/21 07:22:42;;;;;;;1.47;0.90;;;;;;;19.14;44.08;98297.09;5107606;28;42090;-74
2021/05/21 07:25:10;;;;;;;1.33;0.80;;;;;;;19.06;44.13;98297.03;5107579;28;43233;-78
2021/05/21 07:27:39;;;;;;;2.50;1.80;;;;;;;19.08;43.52;98293.19;5108166;28;41286;-79
2021/05/21 07:30:07;;;;;;;1.70;1.43;;;;;;;19.10;43.87;98275.09;5109805;27;40747;-76
2021/05/21 07:32:34;;;;;;;2.87;1.00;;;;;;;19.34;43.82;98287.72;5109704;27;42513;-76
2021/05/21 07:35:02;;;;;;;2.60;1.10;;;;;;;19.52;43.12;98280.41;5108015;28;42759;-75
2021/05/21 07:37:29;;;;;;;1.33;1.00;;;;;;;19.71;42.93;98279.22;5109563;27;42985;-76
2021/05/21 07:39:57;;;;;;;3.40;0.93;;;;;;;19.87;43.25;98268.50;5108983;27;40518;-75
2021/05/21 07:42:24;;;;;;;2.40;1.00;;;;;;;19.99;41.67;98285.13;5109804;27;42700;-74
2021/05/21 07:44:51;;;;;;;3.10;1.10;;;;;;;20.11;42.40;98270.31;5108229;28;42895;-77
2021/05/21 07:47:20;;;;;;;1.53;0.80;;;;;;;20.20;41.64;98280.03;5108918;28;41418;-75
2021/05/21 07:49:47;;;;;;;1.63;1.10;;;;;;;20.23;41.17;98277.03;5108140;28;39710;-74
2021/05/21 07:52:14;;;;;;;1.57;0.90;;;;;;;20.23;41.34;98278.88;5109005;27;41525;-76
2021/05/21 07:54:41;;;;;;;2.43;1.00;;;;;;;20.32;41.65;98275.97;5108232;28;42501;-74
2021/05/21 07:57:10;;;;;;;2.60;1.00;;;;;;;20.27;41.39;98269.47;5108741;27;42666;-78
2021/05/21 07:59:37;;;;;;;2.80;1.00;;;;;;;20.36;41.23;98282.75;5109893;27;39729;-74
2021/05/21 08:02:04;;;;;;;3.17;0.90;;;;;;;20.40;41.16;98272.44;5106719;28;41638;-77
2021/05/21 08:04:31;;;;;;;1.93;1.00;;;;;;;20.41;40.97;98272.28;5107992;28;41961;-76
2021/05/21 08:06:59;;;;;;;1.53;1.00;;;;;;;20.40;41.23;98269.75;5108796;27;42665;-76
2021/05/21 08:09:26;;;;;;;0.90;0.90;;;;;;;20.31;41.28;98238.50;5108376;27;39806;-77
2021/05/21 08:11:53;;;;;;;1.07;0.70;;;;;;;20.39;40.38;98263.56;5106032;28;42407;-75
2021/05/21 08:14:21;;;;;;;1.07;0.90;;;;;;;20.31;40.37;98258.16;5108049;27;43334;-77
2021/05/21 08:16:48;;;;;;;0.87;0.83;;;;;;;20.29;41.45;98249.44;5107083;28;42104;-77
2021/05/21 08:19:15;;;;;;;1.97;0.80;;;;;;;20.29;40.69;98252.13;5107888;27;39707;-75
2021/05/21 08:21:42;;;;;;;1.67;1.33;;;;;;;20.24;40.11;98267.94;5108147;27;41759;-76
2021/05/21 08:24:10;;;;;;;2.30;1.17;;;;;;;20.27;40.28;98256.84;5107616;28;41858;-76
2021/05/21 08:26:37;;;;;;;3.53;0.80;;;;;;;20.29;40.22;98260.19;5106597;28;42612;-79
2021/05/21 08:29:05;;;;;;;3.13;1.83;;;;;;;20.27;40.64;98266.78;5113414;27;39812;-79
2021/05/21 08:31:33;;;;;;;1.53;0.90;;;;;;;20.27;40.35;98261.38;5116153;27;43093;-75
2021/05/21 08:34:00;;;;;;;2.47;0.90;;;;;;;20.21;39.90;98260.22;5111371;28;42724;-75
2021/05/21 08:36:28;;;;;;;1.43;0.80;;;;;;;20.23;40.01;98260.88;5112758;27;20234;-76
2021/05/21 08:38:55;;;;;;;2.93;0.97;;;;;;;20.35;39.59;98262.22;5112279;27;40124;-76
2021/05/21 08:41:25;;;;;;;1.47;1.00;;;;;;;20.47;40.27;98269.94;5095316;28;40840;-76
2021/05/21 08:43:53;;;;;;;2.17;0.90;;;;;;;20.49;38.66;98275.97;5096530;28;41801;-73
2021/05/21 08:46:22;;;;;;;2.03;1.00;;;;;;;20.57;39.83;98259.81;5108155;28;41316;-73
2021/05/21 08:48:51;;;;;;;1.00;0.70;;;;;;;20.58;38.82;98272.25;5108963;27;39882;-75
2021/05/21 08:51:18;;;;;;;3.80;0.87;;;;;;;20.55;38.93;98264.50;5106689;28;41818;-77
2021/05/21 08:53:46;;;;;;;0.93;0.67;;;;;;;20.53;39.14;98264.69;5108260;27;42595;-76
2021/05/21 08:56:13;;;;;;;2.73;0.90;;;;;;;20.57;38.93;98267.88;5104844;28;42498;-77
2021/05/21 08:58:43;;;;;;;1.10;0.80;;;;;;;20.73;38.57;98260.59;5108886;27;39648;-76
2021/05/21 09:01:10;;;;;;;2.70;0.93;;;;;;;20.87;37.64;98259.03;5107486;27;42507;-74
2021/05/21 09:03:38;;;;;;;1.13;0.77;;;;;;;21.03;36.74;98272.38;5107267;28;41792;-75
2021/05/21 09:06:15;;;;;;;0.83;0.70;;;;;;;20.99;36.63;98275.63;5124126;27;41306;-78
2021/05/21 09:08:45;;;;;;;2.07;0.73;;;;;;;21.02;37.49;98254.56;5107332;28;41515;-77
2021/05/21 09:11:28;;;;;;;3.30;0.80;;;;;;;21.21;36.98;98279.41;5106663;28;41426;-77
2021/05/21 09:13:58;;;;;;;1.63;0.60;;;;;;;21.34;37.01;98268.88;5107440;27;42965;-79
2021/05/21 09:16:27;;;;;;;11.83;10.37;;;;;;;21.48;37.87;98260.03;5089854;28;42190;-79
2021/05/21 09:19:05;;;;;;;1.67;1.10;;;;;;;21.54;36.50;98275.47;5105002;27;39752;-77
2021/05/21 09:21:54;;;;;;;2.27;1.13;;;;;;;21.58;35.91;98286.75;5105455;28;42827;-75
2021/05/21 09:24:23;;;;;;;2.77;0.73;;;;;;;21.59;35.83;98289.25;5105789;27;42538;-77
2021/05/21 09:26:53;;;;;;;2.87;1.03;;;;;;;21.63;36.93;98279.81;5102781;28;42944;-77
2021/05/21 09:29:44;;;;;;;3.13;0.80;;;;;;;21.63;36.20;98279.81;5103352;27;40168;-76
2021/05/21 09:32:16;;;;;;;1.83;0.87;;;;;;;21.60;35.94;98290.94;5104007;28;42637;-77
2021/05/21 09:34:46;;;;;;;2.77;0.77;;;;;;;21.68;36.17;98287.34;5101770;28;42569;-75
2021/05/21 09:37:22;;;;;;;2.23;0.90;;;;;;;21.70;36.63;98288.00;5102601;28;41916;-77
2021/05/21 09:40:04;;;;;;;2.57;0.83;;;;;;;21.59;35.94;98294.66;5107930;27;39801;-76
2021/05/21 09:42:44;;;;;;;1.70;0.80;;;;;;;21.47;36.34;98312.25;5107541;27;41639;-79
2021/05/21 09:45:15;;;;;;;1.73;0.77;;;;;;;21.25;36.01;98304.97;5107034;28;42478;-77
2021/05/21 09:47:53;;;;;;;1.40;1.00;;;;;;;20.96;35.80;98311.81;5089736;28;41154;-78
2021/05/21 09:50:31;;;;;;;2.07;1.03;;;;;;;20.95;36.01;98312.81;5103999;28;40423;-78
2021/05/21 09:53:05;;;;;;;7.13;1.83;;;;;;;21.06;36.27;98307.03;5102006;28;41590;-76
2021/05/21 09:55:33;;;;;;;2.50;0.83;;;;;;;21.14;36.12;98307.00;5108231;27;42370;-79
2021/05/21 09:58:01;;;;;;;4.97;1.10;;;;;;;21.13;36.91;98305.34;5085961;28;42142;-77
2021/05/21 10:00:28;;;;;;;2.13;0.90;;;;;;;20.99;36.43;98324.91;5092316;28;39568;-77
2021/05/21 10:02:56;;;;;;;2.33;0.87;;;;;;;21.08;36.39;98318.47;5107054;27;41670;-78
2021/05/21 10:05:24;;;;;;;1.37;0.97;;;;;;;21.19;36.91;98303.81;5108003;27;43512;-75
2021/05/21 10:07:53;;;;;;;2.50;0.93;;;;;;;21.22;37.06;98313.41;5106983;27;42908;-78
2021/05/21 10:10:24;;;;;;;1.60;1.00;;;;;;;21.24;37.12;98306.00;5106436;27;41112;-78
2021/05/21 10:12:52;;;;;;;0.90;0.83;;;;;;;21.20;36.20;98310.03;5107313;28;41501;-76
2021/05/21 10:15:20;;;;;;;2.60;0.90;;;;;;;21.17;36.62;98301.25;5108185;27;42626;-79
2021/05/21 10:17:50;;;;;;;1.17;0.80;;;;;;;21.14;36.64;98300.78;5107043;27;42951;-77
2021/05/21 10:20:19;;;;;;;2.33;0.93;;;;;;;21.12;36.73;98314.44;5109049;27;40623;-78
2021/05/21 10:22:48;;;;;;;10.23;8.13;;;;;;;20.99;36.47;98307.94;5108239;27;41624;-79
2021/05/21 10:25:22;;;;;;;3.43;1.70;;;;;;;20.82;36.78;98300.91;5108467;27;43255;-78
2021/05/21 10:27:53;;;;;;;3.13;0.90;;;;;;;20.71;37.29;98277.91;5107223;27;42217;-77
2021/05/21 10:30:22;;;;;;;3.60;0.87;;;;;;;20.78;37.67;98292.34;5108981;27;40636;-76
2021/05/21 10:32:49;;;;;;;2.63;1.00;;;;;;;21.06;37.58;98285.50;5106389;27;42119;-74
2021/05/21 10:35:19;;;;;;;2.20;1.10;;;;;;;21.47;35.42;98301.47;5107299;27;43294;-76
2021/05/21 10:38:19;;;;;;;3.43;0.70;;;;;;;21.83;34.91;98307.94;5107817;27;42343;-76
2021/05/21 10:41:15;;;;;;;2.53;0.70;;;;;;;22.13;35.28;98313.47;5106273;28;39257;-78
2021/05/21 10:44:00;;;;;;;4.03;0.80;;;;;;;22.23;33.97;98308.66;5086037;28;41279;-77
2021/05/21 10:46:42;;;;;;;2.40;0.87;;;;;;;22.30;33.45;98308.75;5086987;28;42640;-75
2021/05/21 10:49:22;;;;;;;1.90;0.73;;;;;;;22.49;33.57;98314.47;5083929;28;42935;-75
2021/05/21 10:51:51;;;;;;;2.93;1.30;;;;;;;22.77;33.32;98311.13;5105195;28;39689;-77
2021/05/21 10:54:30;;;;;;;4.97;1.33;;;;;;;22.92;32.73;98303.88;5104765;28;41683;-76
2021/05/21 10:57:10;;;;;;;2.53;1.13;;;;;;;22.95;32.87;98303.50;5083701;28;41931;-80
2021/05/21 10:59:56;;;;;;;1.20;0.90;;;;;;;23.19;32.90;98300.50;5106154;28;42203;-78
2021/05/21 11:02:24;;;;;;;1.87;1.20;;;;;;;23.25;32.87;98305.13;5090215;28;39738;-78
2021/05/21 11:04:53;;;;;;;2.33;1.00;;;;;;;23.33;32.97;98281.72;5105012;28;41452;-76
2021/05/21 11:07:34;;;;;;;2.37;0.70;;;;;;;23.55;32.07;98321.31;5088381;28;42135;-76
2021/05/21 11:10:01;;;;;;;2.00;0.70;;;;;;;23.62;31.68;98314.94;5105527;28;42417;-76
2021/05/21 11:12:44;;;;;;;3.17;1.07;;;;;;;23.73;31.72;98305.50;5104804;28;39722;-77
2021/05/21 11:15:36;;;;;;;2.73;0.90;;;;;;;24.05;31.59;98303.28;5106991;27;41430;-77
2021/05/21 11:18:30;;;;;;;2.60;0.97;;;;;;;24.62;31.82;98301.25;5104139;28;44029;-76
2021/05/21 11:21:08;;;;;;;3.30;0.90;;;;;;;24.97;30.79;98312.94;5100307;28;42413;-77
2021/05/21 11:23:37;;;;;;;1.40;0.80;;;;;;;25.39;30.81;98306.44;5084368;28;38721;-76
2021/05/21 11:26:22;;;;;;;4.40;0.90;;;;;;;25.97;30.02;98314.94;5072690;28;41003;-77
2021/05/21 11:28:51;;;;;;;3.97;1.03;;;;;;;26.34;29.52;98315.41;5105370;28;42104;-77
2021/05/21 11:31:22;;;;;;;2.03;1.10;;;;;;;26.03;29.63;98314.13;5105331;28;41863;-76
2021/05/21 11:33:51;;;;;;;4.47;0.97;;;;;;;25.64;29.95;98322.19;5105308;27;39636;-77
2021/05/21 11:36:20;;;;;;;2.50;1.00;;;;;;;25.50;29.95;98305.00;5105466;28;41585;-75
2021/05/21 11:38:47;;;;;;;2.80;1.03;;;;;;;25.09;30.32;98305.09;5087641;28;41980;-76
2021/05/21 11:41:14;;;;;;;2.80;1.00;;;;;;;24.87;30.12;98285.34;5103800;28;42275;-75
2021/05/21 11:43:43;;;;;;;5.20;0.90;;;;;;;25.65;30.41;98299.47;5105529;28;38808;-75